weather.gov     
National Weather Service

Terminal Aerodrome Forecast
NWS Homepage
This page is being discontinued on March 12, 2014.
The same data is available at this site. Please update your bookmarks.
Thank you, and we apologize for the inconvenience.
Please send an email to SR-SRH.Webmaster@noaa.gov with any concerns.


Current Version
Previous Version:    01  02  03  04  05  06  07  08  09  10  11  12  13  14  15  16  17  18  19  20  21  22  23  24  25  26  27  28  29  30  
   31  
[Printable]
098
FTUS44 KJAN 240600 AAA
TAFGLH
TAF AMD
KGLH 240631Z 2407/2506 01003KT P6SM BKN006
     FM240900 33003KT 5SM BR OVC007
     FM241330 36004KT P6SM SCT020 BKN250
     FM241700 35007KT P6SM VCTS SCT030 BKN050CB
     FM242000 01009KT P6SM FEW030 SCT050
     FM250100 01005KT P6SM FEW250=


U.S. Dept. of Commerce
NOAA National Weather Service
1325 East West Highway
Silver Spring, MD 20910
E-mail: w-nws.webmaster@noaa.gov
Page last modified: May 16, 2007
NATIONAL WEATHER SERVICE: for Safety, for Work, for Fun - FOR LIFE